EZY144Y EHAM-EGKK
Flight info
| Callsign | EZY144Y |
|---|---|
| Flight time | 0h 50m |
| Altitude | 24000 |
| Route | IDRID L980 ABNED Z344 AMRIV Q63 ARREK Y4 TEBRA |
| Aircraft | A20N/M-SDE2E3FGHIRWXY/LB1 |
Departure
| Time | 2026-05-07 17:54 |
|---|---|
| Airport | Amsterdam Airport Schiphol (EHAM) |
Arrival
| Time | 2026-05-07 18:44 |
|---|---|
| Airport | London Gatwick Airport (EGKK) |
| Time | Latitude | Longitude | Altitude | Speed | Heading |
|---|---|---|---|---|---|
| 2026-05-07 17:14 | 52.30969 | 4.75299 | 0 ft | 0 kts | 148° |
| 2026-05-07 17:35 | 52.30975 | 4.75293 | 0 ft | 2 kts | 146° |
| 2026-05-07 17:35 | 52.30988 | 4.75278 | 0 ft | 2 kts | 147° |
| 2026-05-07 17:35 | 52.31001 | 4.75261 | 0 ft | 2 kts | 110° |
| 2026-05-07 17:35 | 52.31000 | 4.75235 | 0 ft | 2 kts | 70° |
| 2026-05-07 17:36 | 52.30997 | 4.75222 | 0 ft | 1 kts | 72° |
| 2026-05-07 17:36 | 52.30997 | 4.75221 | 0 ft | 0 kts | 72° |
| 2026-05-07 17:40 | 52.30997 | 4.75222 | 0 ft | 0 kts | 68° |
| 2026-05-07 17:40 | 52.30999 | 4.75224 | 0 ft | 0 kts | 58° |
| 2026-05-07 17:40 | 52.31000 | 4.75227 | 0 ft | 0 kts | 59° |
| 2026-05-07 17:46 | 52.31014 | 4.75256 | 0 ft | 6 kts | 45° |
| 2026-05-07 17:46 | 52.31050 | 4.75295 | 0 ft | 6 kts | 29° |
| 2026-05-07 17:47 | 52.31080 | 4.75329 | 1 ft | 5 kts | 40° |
| 2026-05-07 17:47 | 52.31107 | 4.75382 | 1 ft | 7 kts | 57° |
| 2026-05-07 17:47 | 52.31153 | 4.75433 | 2 ft | 9 kts | 5° |
| 2026-05-07 17:47 | 52.31222 | 4.75431 | 4 ft | 11 kts | 356° |
| 2026-05-07 17:48 | 52.31310 | 4.75423 | 1 ft | 14 kts | 357° |
| 2026-05-07 17:48 | 52.31419 | 4.75411 | -1 ft | 16 kts | 356° |
| 2026-05-07 17:48 | 52.31500 | 4.75380 | -3 ft | 10 kts | 308° |
| 2026-05-07 17:48 | 52.31508 | 4.75258 | -5 ft | 12 kts | 266° |
| 2026-05-07 17:49 | 52.31502 | 4.75098 | -2 ft | 16 kts | 267° |
| 2026-05-07 17:49 | 52.31496 | 4.74920 | 0 ft | 16 kts | 266° |
| 2026-05-07 17:49 | 52.31489 | 4.74722 | 1 ft | 18 kts | 266° |
| 2026-05-07 17:49 | 52.31482 | 4.74515 | 4 ft | 18 kts | 268° |
| 2026-05-07 17:50 | 52.31477 | 4.74320 | 3 ft | 14 kts | 266° |
| 2026-05-07 17:50 | 52.31446 | 4.74182 | 3 ft | 13 kts | 225° |
| 2026-05-07 17:50 | 52.31366 | 4.74134 | 2 ft | 13 kts | 185° |
| 2026-05-07 17:50 | 52.31276 | 4.74125 | 1 ft | 14 kts | 183° |
| 2026-05-07 17:51 | 52.31161 | 4.74114 | -1 ft | 20 kts | 183° |
| 2026-05-07 17:51 | 52.31004 | 4.74100 | -2 ft | 25 kts | 183° |
| 2026-05-07 17:51 | 52.30823 | 4.74080 | -2 ft | 23 kts | 182° |
| 2026-05-07 17:51 | 52.30669 | 4.74070 | 0 ft | 21 kts | 183° |
| 2026-05-07 17:52 | 52.30534 | 4.74055 | 1 ft | 19 kts | 184° |
| 2026-05-07 17:52 | 52.30404 | 4.74046 | 1 ft | 18 kts | 181° |
| 2026-05-07 17:52 | 52.30289 | 4.74002 | 2 ft | 17 kts | 211° |
| 2026-05-07 17:52 | 52.30199 | 4.73876 | -1 ft | 15 kts | 233° |
| 2026-05-07 17:53 | 52.30205 | 4.73753 | 0 ft | 11 kts | 318° |
| 2026-05-07 17:53 | 52.30288 | 4.73741 | -4 ft | 14 kts | 1° |
| 2026-05-07 17:53 | 52.30384 | 4.73751 | -3 ft | 15 kts | 4° |
| 2026-05-07 17:53 | 52.30590 | 4.73772 | -3 ft | 57 kts | 4° |
| 2026-05-07 17:54 | 52.31190 | 4.73825 | 0 ft | 119 kts | 4° |
| 2026-05-07 17:54 | 52.32203 | 4.73910 | 67 ft | 162 kts | 2° |
| 2026-05-07 17:54 | 52.33311 | 4.73977 | 730 ft | 158 kts | 4° |
| 2026-05-07 17:54 | 52.34397 | 4.73858 | 1487 ft | 156 kts | 349° |
| 2026-05-07 17:55 | 52.35499 | 4.73353 | 2018 ft | 179 kts | 344° |
| 2026-05-07 17:55 | 52.36794 | 4.72663 | 2413 ft | 208 kts | 342° |
| 2026-05-07 17:55 | 52.38233 | 4.71892 | 2872 ft | 232 kts | 343° |
| 2026-05-07 17:55 | 52.39860 | 4.71042 | 3375 ft | 254 kts | 342° |
| 2026-05-07 17:56 | 52.41553 | 4.70187 | 4212 ft | 261 kts | 342° |
| 2026-05-07 17:56 | 52.43309 | 4.69334 | 5077 ft | 266 kts | 342° |
| 2026-05-07 17:56 | 52.45112 | 4.68490 | 5876 ft | 272 kts | 342° |
| 2026-05-07 17:56 | 52.46961 | 4.67650 | 6678 ft | 278 kts | 343° |
| 2026-05-07 17:57 | 52.48825 | 4.66714 | 7545 ft | 280 kts | 333° |
| 2026-05-07 17:57 | 52.49898 | 4.65567 | 8140 ft | 278 kts | 314° |
| 2026-05-07 17:57 | 52.51124 | 4.61965 | 9339 ft | 277 kts | 279° |
| 2026-05-07 17:57 | 52.51397 | 4.58817 | 10185 ft | 281 kts | 271° |
| 2026-05-07 17:58 | 52.51180 | 4.55557 | 10658 ft | 298 kts | 251° |
| 2026-05-07 17:58 | 52.50317 | 4.52336 | 10981 ft | 320 kts | 239° |
| 2026-05-07 17:58 | 52.49043 | 4.49190 | 11298 ft | 340 kts | 232° |
| 2026-05-07 17:58 | 52.47528 | 4.46096 | 11806 ft | 353 kts | 229° |
| 2026-05-07 17:59 | 52.46465 | 4.44060 | 12278 ft | 357 kts | 229° |
| 2026-05-07 17:59 | 52.44831 | 4.40965 | 12850 ft | 360 kts | 229° |
| 2026-05-07 17:59 | 52.43199 | 4.37834 | 13060 ft | 361 kts | 229° |
| 2026-05-07 17:59 | 52.41577 | 4.34644 | 13479 ft | 367 kts | 230° |
| 2026-05-07 18:00 | 52.39958 | 4.31393 | 14291 ft | 368 kts | 230° |
| 2026-05-07 18:00 | 52.38363 | 4.28152 | 15012 ft | 371 kts | 231° |
| 2026-05-07 18:00 | 52.36741 | 4.24836 | 15717 ft | 375 kts | 231° |
| 2026-05-07 18:00 | 52.35097 | 4.21469 | 16411 ft | 379 kts | 231° |
| 2026-05-07 18:01 | 52.33439 | 4.18075 | 17099 ft | 382 kts | 231° |
| 2026-05-07 18:01 | 52.31769 | 4.14664 | 17789 ft | 386 kts | 231° |
| 2026-05-07 18:01 | 52.30104 | 4.11269 | 18431 ft | 390 kts | 231° |
| 2026-05-07 18:01 | 52.28423 | 4.07850 | 18975 ft | 393 kts | 231° |
| 2026-05-07 18:02 | 52.24985 | 4.00876 | 20108 ft | 399 kts | 231° |
| 2026-05-07 18:02 | 52.23533 | 3.97935 | 20582 ft | 402 kts | 231° |
| 2026-05-07 18:02 | 52.21763 | 3.94357 | 21157 ft | 405 kts | 230° |
| 2026-05-07 18:03 | 52.19989 | 3.90774 | 21709 ft | 407 kts | 230° |
| 2026-05-07 18:03 | 52.18203 | 3.87173 | 22267 ft | 410 kts | 230° |
| 2026-05-07 18:03 | 52.16424 | 3.83592 | 22772 ft | 413 kts | 230° |
| 2026-05-07 18:03 | 52.14608 | 3.79942 | 23305 ft | 416 kts | 230° |
| 2026-05-07 18:04 | 52.12776 | 3.76264 | 23762 ft | 419 kts | 230° |
| 2026-05-07 18:04 | 52.11475 | 3.73656 | 23979 ft | 422 kts | 230° |
| 2026-05-07 18:04 | 52.09607 | 3.69916 | 24075 ft | 429 kts | 230° |
| 2026-05-07 18:04 | 52.07712 | 3.66125 | 24086 ft | 434 kts | 230° |
| 2026-05-07 18:05 | 52.05798 | 3.62299 | 24087 ft | 435 kts | 230° |
| 2026-05-07 18:05 | 52.03892 | 3.58490 | 24087 ft | 435 kts | 230° |
| 2026-05-07 18:05 | 52.02004 | 3.54726 | 24091 ft | 435 kts | 230° |
| 2026-05-07 18:05 | 52.00090 | 3.50914 | 24089 ft | 435 kts | 231° |
| 2026-05-07 18:06 | 51.98225 | 3.47046 | 24089 ft | 435 kts | 232° |
| 2026-05-07 18:06 | 51.96415 | 3.43107 | 24091 ft | 435 kts | 233° |
| 2026-05-07 18:06 | 51.94629 | 3.39132 | 24091 ft | 434 kts | 233° |
| 2026-05-07 18:06 | 51.92861 | 3.35170 | 24100 ft | 434 kts | 233° |
| 2026-05-07 18:07 | 51.91089 | 3.31205 | 24088 ft | 434 kts | 233° |
| 2026-05-07 18:07 | 51.89310 | 3.27248 | 24089 ft | 434 kts | 233° |
| 2026-05-07 18:07 | 51.87551 | 3.23355 | 24084 ft | 434 kts | 233° |
| 2026-05-07 18:07 | 51.85775 | 3.19396 | 24082 ft | 434 kts | 236° |
| 2026-05-07 18:08 | 51.84224 | 3.15197 | 24082 ft | 434 kts | 240° |
| 2026-05-07 18:08 | 51.82772 | 3.10909 | 24087 ft | 433 kts | 241° |
| 2026-05-07 18:08 | 51.81388 | 3.06642 | 24079 ft | 433 kts | 242° |
| 2026-05-07 18:08 | 51.80015 | 3.02310 | 24080 ft | 433 kts | 242° |
| 2026-05-07 18:09 | 51.78650 | 2.97963 | 24076 ft | 433 kts | 242° |
| 2026-05-07 18:09 | 51.77287 | 2.93620 | 24082 ft | 433 kts | 242° |
| 2026-05-07 18:09 | 51.75921 | 2.89286 | 24070 ft | 432 kts | 242° |
| 2026-05-07 18:09 | 51.74565 | 2.85008 | 24074 ft | 432 kts | 242° |
| 2026-05-07 18:10 | 51.73194 | 2.80696 | 24084 ft | 432 kts | 242° |
| 2026-05-07 18:10 | 51.71818 | 2.76387 | 24071 ft | 432 kts | 242° |
| 2026-05-07 18:10 | 51.70437 | 2.72073 | 24073 ft | 432 kts | 242° |
| 2026-05-07 18:10 | 51.69247 | 2.67622 | 24069 ft | 433 kts | 250° |
| 2026-05-07 18:11 | 51.68485 | 2.62904 | 24077 ft | 432 kts | 257° |
| 2026-05-07 18:11 | 51.68094 | 2.59754 | 24083 ft | 432 kts | 258° |
| 2026-05-07 18:11 | 51.67437 | 2.53344 | 24078 ft | 432 kts | 260° |
| 2026-05-07 18:11 | 51.67015 | 2.48609 | 24075 ft | 432 kts | 261° |
| 2026-05-07 18:12 | 51.66603 | 2.43809 | 24075 ft | 432 kts | 261° |
| 2026-05-07 18:12 | 51.66188 | 2.38998 | 24072 ft | 432 kts | 261° |
| 2026-05-07 18:12 | 51.65767 | 2.34212 | 24071 ft | 432 kts | 261° |
| 2026-05-07 18:12 | 51.65337 | 2.29430 | 24067 ft | 431 kts | 260° |
| 2026-05-07 18:13 | 51.64898 | 2.24643 | 24071 ft | 431 kts | 260° |
| 2026-05-07 18:13 | 51.64460 | 2.19925 | 24068 ft | 431 kts | 260° |
| 2026-05-07 18:13 | 51.64011 | 2.15136 | 24065 ft | 431 kts | 260° |
| 2026-05-07 18:13 | 51.63561 | 2.10360 | 24066 ft | 431 kts | 260° |
| 2026-05-07 18:14 | 51.63114 | 2.05568 | 24064 ft | 431 kts | 260° |
| 2026-05-07 18:14 | 51.62676 | 2.00848 | 24071 ft | 431 kts | 260° |
| 2026-05-07 18:14 | 51.62228 | 1.96013 | 24073 ft | 431 kts | 260° |
| 2026-05-07 18:14 | 51.61789 | 1.91313 | 24070 ft | 431 kts | 260° |
| 2026-05-07 18:15 | 51.61102 | 1.86607 | 24070 ft | 429 kts | 250° |
| 2026-05-07 18:15 | 51.59869 | 1.82237 | 24070 ft | 429 kts | 238° |
| 2026-05-07 18:15 | 51.58148 | 1.78313 | 24068 ft | 429 kts | 231° |
| 2026-05-07 18:15 | 51.56219 | 1.74631 | 24070 ft | 430 kts | 229° |
| 2026-05-07 18:16 | 51.54234 | 1.71014 | 24039 ft | 435 kts | 228° |
| 2026-05-07 18:16 | 51.52241 | 1.67411 | 23569 ft | 438 kts | 228° |
| 2026-05-07 18:16 | 51.50235 | 1.63743 | 22931 ft | 436 kts | 231° |
| 2026-05-07 18:16 | 51.48588 | 1.59698 | 22613 ft | 432 kts | 243° |
| 2026-05-07 18:17 | 51.47421 | 1.55266 | 22345 ft | 430 kts | 248° |
| 2026-05-07 18:17 | 51.46379 | 1.50760 | 22084 ft | 428 kts | 249° |
| 2026-05-07 18:17 | 51.45361 | 1.46275 | 21816 ft | 427 kts | 249° |
| 2026-05-07 18:17 | 51.44327 | 1.41823 | 21550 ft | 425 kts | 247° |
| 2026-05-07 18:18 | 51.42917 | 1.37736 | 21203 ft | 424 kts | 232° |
| 2026-05-07 18:18 | 51.40830 | 1.34431 | 20699 ft | 422 kts | 219° |
| 2026-05-07 18:18 | 51.38487 | 1.31580 | 20159 ft | 421 kts | 216° |
| 2026-05-07 18:18 | 51.36113 | 1.28817 | 19456 ft | 419 kts | 216° |
| 2026-05-07 18:19 | 51.33764 | 1.26088 | 18965 ft | 415 kts | 216° |
| 2026-05-07 18:19 | 51.31462 | 1.23401 | 18479 ft | 413 kts | 216° |
| 2026-05-07 18:19 | 51.29146 | 1.20688 | 17903 ft | 411 kts | 216° |
| 2026-05-07 18:19 | 51.26832 | 1.17971 | 16765 ft | 415 kts | 216° |
| 2026-05-07 18:20 | 51.24522 | 1.15252 | 15754 ft | 417 kts | 216° |
| 2026-05-07 18:20 | 51.22204 | 1.12523 | 15112 ft | 409 kts | 216° |
| 2026-05-07 18:20 | 51.19941 | 1.09865 | 14624 ft | 398 kts | 216° |
| 2026-05-07 18:20 | 51.17739 | 1.07285 | 14218 ft | 387 kts | 216° |
| 2026-05-07 18:21 | 51.15741 | 1.04445 | 14085 ft | 386 kts | 230° |
| 2026-05-07 18:21 | 51.14390 | 1.00798 | 14071 ft | 388 kts | 247° |
| 2026-05-07 18:21 | 51.13730 | 0.96626 | 14078 ft | 390 kts | 259° |
| 2026-05-07 18:21 | 51.13357 | 0.92375 | 13818 ft | 384 kts | 261° |
| 2026-05-07 18:22 | 51.13018 | 0.88167 | 13011 ft | 382 kts | 261° |
| 2026-05-07 18:22 | 51.12794 | 0.85373 | 12504 ft | 381 kts | 261° |
| 2026-05-07 18:22 | 51.12345 | 0.79820 | 11697 ft | 372 kts | 261° |
| 2026-05-07 18:22 | 51.12021 | 0.75819 | 11446 ft | 357 kts | 261° |
| 2026-05-07 18:23 | 51.11713 | 0.71982 | 11078 ft | 342 kts | 261° |
| 2026-05-07 18:23 | 51.11418 | 0.68301 | 10864 ft | 328 kts | 261° |
| 2026-05-07 18:23 | 51.11141 | 0.64810 | 10666 ft | 315 kts | 261° |
| 2026-05-07 18:23 | 51.10873 | 0.61416 | 10490 ft | 303 kts | 261° |
| 2026-05-07 18:24 | 51.10618 | 0.58154 | 10315 ft | 291 kts | 261° |
| 2026-05-07 18:24 | 51.10374 | 0.54994 | 10028 ft | 285 kts | 261° |
| 2026-05-07 18:24 | 51.10134 | 0.51881 | 9665 ft | 281 kts | 261° |
| 2026-05-07 18:24 | 51.09896 | 0.48799 | 9219 ft | 280 kts | 261° |
| 2026-05-07 18:25 | 51.09654 | 0.45726 | 8775 ft | 279 kts | 261° |
| 2026-05-07 18:25 | 51.09410 | 0.42673 | 8344 ft | 277 kts | 261° |
| 2026-05-07 18:25 | 51.09185 | 0.39892 | 7977 ft | 276 kts | 261° |
| 2026-05-07 18:26 | 51.09015 | 0.37802 | 7859 ft | 274 kts | 261° |
| 2026-05-07 18:26 | 51.08768 | 0.34788 | 7839 ft | 275 kts | 261° |
| 2026-05-07 18:26 | 51.08519 | 0.31770 | 7851 ft | 274 kts | 261° |
| 2026-05-07 18:27 | 51.08273 | 0.28787 | 7860 ft | 271 kts | 261° |
| 2026-05-07 18:27 | 51.08030 | 0.25833 | 7869 ft | 274 kts | 261° |
| 2026-05-07 18:27 | 51.07780 | 0.22822 | 7892 ft | 275 kts | 261° |
| 2026-05-07 18:27 | 51.07612 | 0.20818 | 7896 ft | 275 kts | 261° |
| 2026-05-07 18:28 | 51.07274 | 0.16791 | 7919 ft | 275 kts | 260° |
| 2026-05-07 18:28 | 51.07020 | 0.13765 | 7929 ft | 275 kts | 260° |
| 2026-05-07 18:28 | 51.06764 | 0.10734 | 8044 ft | 275 kts | 261° |
| 2026-05-07 18:28 | 51.06506 | 0.07719 | 8055 ft | 275 kts | 260° |
| 2026-05-07 18:29 | 51.06249 | 0.04713 | 8048 ft | 275 kts | 260° |
| 2026-05-07 18:29 | 51.05994 | 0.01730 | 8051 ft | 275 kts | 261° |
| 2026-05-07 18:29 | 51.05735 | -0.01281 | 8055 ft | 275 kts | 260° |
| 2026-05-07 18:29 | 51.05480 | -0.04242 | 8047 ft | 275 kts | 260° |
| 2026-05-07 18:30 | 51.05218 | -0.07258 | 8049 ft | 275 kts | 260° |
| 2026-05-07 18:30 | 51.04955 | -0.10274 | 8052 ft | 275 kts | 260° |
| 2026-05-07 18:30 | 51.04691 | -0.13279 | 8048 ft | 275 kts | 260° |
| 2026-05-07 18:30 | 51.04425 | -0.16289 | 8053 ft | 274 kts | 260° |
| 2026-05-07 18:31 | 51.04162 | -0.19246 | 8050 ft | 274 kts | 260° |
| 2026-05-07 18:31 | 51.03892 | -0.22258 | 8049 ft | 274 kts | 260° |
| 2026-05-07 18:31 | 51.03621 | -0.25260 | 8052 ft | 274 kts | 260° |
| 2026-05-07 18:31 | 51.03350 | -0.28259 | 8047 ft | 274 kts | 260° |
| 2026-05-07 18:32 | 51.03079 | -0.31248 | 8045 ft | 274 kts | 260° |
| 2026-05-07 18:32 | 51.02884 | -0.33393 | 8046 ft | 274 kts | 260° |
| 2026-05-07 18:32 | 51.02608 | -0.36388 | 8051 ft | 274 kts | 260° |
| 2026-05-07 18:32 | 51.02330 | -0.39374 | 8022 ft | 273 kts | 259° |
| 2026-05-07 18:33 | 51.01679 | -0.42187 | 7617 ft | 272 kts | 234° |
| 2026-05-07 18:33 | 51.00278 | -0.44162 | 7167 ft | 273 kts | 206° |
| 2026-05-07 18:33 | 50.98439 | -0.44833 | 6699 ft | 275 kts | 176° |
| 2026-05-07 18:33 | 50.96618 | -0.44009 | 6271 ft | 273 kts | 146° |
| 2026-05-07 18:34 | 50.95345 | -0.41943 | 6086 ft | 257 kts | 116° |
| 2026-05-07 18:34 | 50.94917 | -0.39351 | 5886 ft | 243 kts | 89° |
| 2026-05-07 18:34 | 50.95039 | -0.36713 | 5656 ft | 237 kts | 81° |
| 2026-05-07 18:34 | 50.95269 | -0.34168 | 5386 ft | 229 kts | 81° |
| 2026-05-07 18:35 | 50.95653 | -0.31740 | 5072 ft | 227 kts | 62° |
| 2026-05-07 18:35 | 50.96750 | -0.29979 | 4912 ft | 229 kts | 28° |
| 2026-05-07 18:35 | 50.98300 | -0.29452 | 4595 ft | 232 kts | 356° |
| 2026-05-07 18:35 | 50.99812 | -0.30352 | 4086 ft | 237 kts | 322° |
| 2026-05-07 18:36 | 51.00795 | -0.32448 | 3566 ft | 241 kts | 289° |
| 2026-05-07 18:36 | 51.00974 | -0.35085 | 3138 ft | 240 kts | 265° |
| 2026-05-07 18:36 | 51.00788 | -0.37632 | 3008 ft | 233 kts | 261° |
| 2026-05-07 18:36 | 51.00558 | -0.40183 | 2999 ft | 233 kts | 260° |
| 2026-05-07 18:37 | 51.00326 | -0.42737 | 3003 ft | 234 kts | 260° |
| 2026-05-07 18:37 | 51.00104 | -0.45297 | 2998 ft | 234 kts | 264° |
| 2026-05-07 18:37 | 51.00356 | -0.47779 | 2993 ft | 221 kts | 295° |
| 2026-05-07 18:37 | 51.01310 | -0.49493 | 3000 ft | 198 kts | 328° |
| 2026-05-07 18:38 | 51.02515 | -0.50418 | 3007 ft | 190 kts | 339° |
| 2026-05-07 18:38 | 51.03748 | -0.51167 | 3000 ft | 190 kts | 340° |
| 2026-05-07 18:38 | 51.04996 | -0.51901 | 2999 ft | 191 kts | 340° |
| 2026-05-07 18:38 | 51.06265 | -0.52256 | 2992 ft | 188 kts | 9° |
| 2026-05-07 18:39 | 51.07449 | -0.51463 | 3009 ft | 184 kts | 34° |
| 2026-05-07 18:39 | 51.08476 | -0.50235 | 3002 ft | 184 kts | 40° |
| 2026-05-07 18:39 | 51.09470 | -0.48931 | 3002 ft | 184 kts | 40° |
| 2026-05-07 18:39 | 51.10428 | -0.47577 | 2992 ft | 184 kts | 51° |
| 2026-05-07 18:40 | 51.11024 | -0.45871 | 3008 ft | 170 kts | 71° |
| 2026-05-07 18:40 | 51.11321 | -0.44116 | 3009 ft | 161 kts | 77° |
| 2026-05-07 18:40 | 51.11563 | -0.42374 | 3004 ft | 161 kts | 77° |
| 2026-05-07 18:40 | 51.11808 | -0.40624 | 2847 ft | 162 kts | 77° |
| 2026-05-07 18:41 | 51.12053 | -0.38882 | 2614 ft | 161 kts | 77° |
| 2026-05-07 18:41 | 51.12294 | -0.37160 | 2399 ft | 162 kts | 78° |
| 2026-05-07 18:41 | 51.12539 | -0.35405 | 2153 ft | 162 kts | 78° |
| 2026-05-07 18:41 | 51.12780 | -0.33677 | 1937 ft | 158 kts | 78° |
| 2026-05-07 18:42 | 51.13017 | -0.31971 | 1723 ft | 158 kts | 78° |
| 2026-05-07 18:42 | 51.13256 | -0.30261 | 1503 ft | 158 kts | 79° |
| 2026-05-07 18:42 | 51.13492 | -0.28556 | 1285 ft | 157 kts | 78° |
| 2026-05-07 18:42 | 51.13726 | -0.26880 | 1062 ft | 157 kts | 78° |
| 2026-05-07 18:43 | 51.13935 | -0.25374 | 848 ft | 157 kts | 78° |
| 2026-05-07 18:43 | 51.14170 | -0.23682 | 637 ft | 157 kts | 77° |
| 2026-05-07 18:43 | 51.14410 | -0.22001 | 425 ft | 155 kts | 78° |
| 2026-05-07 18:43 | 51.14635 | -0.20339 | 219 ft | 151 kts | 77° |
| 2026-05-07 18:44 | 51.14829 | -0.18930 | 215 ft | 112 kts | 78° |
| 2026-05-07 18:44 | 51.14957 | -0.18006 | 220 ft | 60 kts | 78° |
| 2026-05-07 18:44 | 51.15001 | -0.17688 | 223 ft | 38 kts | 78° |
| 2026-05-07 18:44 | 51.15073 | -0.17326 | 215 ft | 29 kts | 63° |
| 2026-05-07 18:45 | 51.15139 | -0.17214 | 214 ft | 6 kts | 8° |
| 2026-05-07 18:45 | 51.15171 | -0.17233 | 210 ft | 4 kts | 322° |
| 2026-05-07 18:45 | 51.15205 | -0.17275 | 216 ft | 5 kts | 323° |
| 2026-05-07 18:45 | 51.15232 | -0.17306 | 218 ft | 5 kts | 324° |
| 2026-05-07 18:46 | 51.15249 | -0.17325 | 215 ft | 2 kts | 325° |
| 2026-05-07 18:46 | 51.15258 | -0.17334 | 212 ft | 0 kts | 329° |
| 2026-05-07 18:47 | 51.15261 | -0.17336 | 214 ft | 3 kts | 330° |
| 2026-05-07 18:47 | 51.15291 | -0.17352 | 208 ft | 5 kts | 347° |
| 2026-05-07 18:48 | 51.15325 | -0.17365 | 216 ft | 5 kts | 347° |
| 2026-05-07 18:48 | 51.15360 | -0.17377 | 210 ft | 5 kts | 348° |
| 2026-05-07 18:48 | 51.15394 | -0.17388 | 215 ft | 5 kts | 348° |
| 2026-05-07 18:48 | 51.15427 | -0.17399 | 214 ft | 5 kts | 348° |
| 2026-05-07 18:49 | 51.15459 | -0.17409 | 210 ft | 5 kts | 348° |
| 2026-05-07 18:49 | 51.15499 | -0.17425 | 208 ft | 9 kts | 346° |
| 2026-05-07 18:49 | 51.15580 | -0.17456 | 215 ft | 14 kts | 347° |
| 2026-05-07 18:49 | 51.15679 | -0.17487 | 210 ft | 14 kts | 349° |
| 2026-05-07 18:50 | 51.15748 | -0.17528 | 210 ft | 7 kts | 311° |
| 2026-05-07 18:50 | 51.15750 | -0.17597 | 211 ft | 6 kts | 259° |
| 2026-05-07 18:50 | 51.15741 | -0.17666 | 210 ft | 7 kts | 258° |
| 2026-05-07 18:50 | 51.15729 | -0.17759 | 211 ft | 10 kts | 258° |
| 2026-05-07 18:51 | 51.15710 | -0.17888 | 208 ft | 13 kts | 257° |
| 2026-05-07 18:51 | 51.15706 | -0.17916 | 208 ft | 0 kts | 257° |
| 2026-05-07 18:52 | 51.15701 | -0.17958 | 212 ft | 6 kts | 259° |
| 2026-05-07 18:52 | 51.15714 | -0.17992 | 210 ft | 2 kts | 348° |
| 2026-05-07 18:52 | 51.15728 | -0.17987 | 208 ft | 2 kts | 17° |
| 2026-05-07 18:53 | 51.15741 | -0.17978 | 214 ft | 2 kts | 26° |
| 2026-05-07 18:53 | 51.15753 | -0.17967 | 217 ft | 2 kts | 32° |
| 2026-05-07 18:53 | 51.15765 | -0.17955 | 210 ft | 2 kts | 32° |
| 2026-05-07 18:53 | 51.15773 | -0.17947 | 212 ft | 1 kts | 32° |
| 2026-05-07 18:54 | 51.15774 | -0.17945 | 212 ft | 0 kts | 32° |